Portada
METAR-TAF:

METAR-TAF

Aeroports :

Aeroport Internacional de Ben Gurion

Tel Aviv-Ben Gurion, Israel

latitud: 32-00N, longitud: 034-54E, altitud: 40 m

Observació

L'informe es va fer fa 15 minuts, a les 15:50 UTC
Vent 4 kt del Nord-Est
Temperatura 20°C
Humitat 43%
Pressió 1015 hPa
Visibilitat 10 km o més
sense núvols per sota de 1500 mi sense presència de cumulonimbus.

METAR: LLBG 211550Z 04004KT CAVOK 20/07 Q1015 NOSIG

Hora: 18:05 (16:05 UTC)

Pronòstic

L'informe es va fer fa 4 hores i 52 minuts, a les 11:13 UTC
Pronòstic vàlid del 21 a les 12 UTC al 22 a les 12 UTC
Vent 8 kt del Oest/Nord-Oest
Visibilitat 10 km o més
sense núvols per sota de 1500 mi sense presència de cumulonimbus.
Evolucionant progressivament
l' 21 a les 16 UTC al 21 a les 18 UTC
Vent 4 kt del Est/Sud-Est
Evolucionant progressivament
l' 22 a les 07 UTC al 22 a les 09 UTC
Vent 8 kt del Oest

TAF: LLBG 211113Z 2112/2212 30008KT CAVOK BECMG 2116/2118 12004KT BECMG 2207/2209 27008KT TX24/2112Z TN12/2204Z

Observacions i pronòstics meteorològics de més de 4000 aeroports (METAR i TAF).

Les estacions disponibles són els punts grocs i vermells al mapa.

Posi el ratolí al punt desitjat per veure el nom de l'estació.

Feu clic per veure les observacions i els pronòstics meteorològics.

Per canviar el mapa: feu clic els botons verds amb una creu de color negre per apropar; al botó verd amb un guió per allunyar la imatge; o en les fletxes verdes per a mapes adjacents.


METAR-TAF: